Impacts METAR Board
IDs:

KGBD - Great Bend Muni, KS, US

Updated at: 1900 UTC 02 Oct 2022
Potential Impact None Slight Moderate High
Time 02/07Z 02/08Z 02/09Z 02/10Z 02/11Z 02/12Z 02/13Z 02/14Z 02/15Z 02/16Z 02/17Z 02/18Z 02/19Z
Temp56 53 52 52 52 52 49 56 67 73 76 79 81
Dewpt39 39 39 39 39 39 41 41 42 43 42 42 41
Altim30.18 30.19 30.19 30.20 30.21 30.22 30.24 30.25 30.26 30.27 30.27 30.24 30.22
VIS10 10 10 10 10 10 10 10 10 10 10 10 10
CIG-- -- -- -- -- -- -- -- -- -- -- -- --
CoverCLRCLRCLRCLRCLRCLRCLRCLRCLRCLRCLRCLRCLR
FltCatVFRVFRVFRVFRVFRVFRVFRVFRVFRVFRVFRVFRVFR
WX--------------------------
WDir1401301401301701600150170170180200150
WSpd7 6 6 6 3 3 0 3 9 10 12 9 13
WGst-- -- -- -- -- -- -- -- -- -- -- -- 17
Raw hourly METARs
KGBD 020656Z AUTO 14007KT 10SM CLR 13/04 A3018 RMK AO2 SLP207 T01330039
KGBD 020756Z AUTO 13006KT 10SM CLR 12/04 A3019 RMK AO2 SLP211 T01170039
KGBD 020856Z AUTO 14006KT 10SM CLR 11/04 A3019 RMK AO2 SLP212 T01110039 51006
KGBD 020956Z AUTO 13006KT 10SM CLR 11/04 A3020 RMK AO2 SLP214 T01110039
KGBD 021056Z AUTO 17003KT 10SM CLR 11/04 A3021 RMK AO2 SLP220 T01110039
KGBD 021156Z AUTO 16003KT 10SM CLR 11/04 A3022 RMK AO2 SLP226 T01110039 10144 20106 53011
KGBD 021256Z AUTO 00000KT 10SM CLR 09/05 A3024 RMK AO2 SLP233 T00940050
KGBD 021356Z AUTO 15003KT 10SM CLR 13/05 A3025 RMK AO2 SLP238 T01330050
KGBD 021456Z AUTO 17009KT 10SM CLR 19/06 A3026 RMK AO2 SLP238 T01940056 51013
KGBD 021556Z AUTO 17010KT 10SM CLR 23/06 A3027 RMK AO2 SLP239 T02280061
KGBD 021656Z AUTO 18012KT 10SM CLR 24/06 A3027 RMK AO2 SLP239 T02440056
KGBD 021756Z AUTO 20009KT 10SM CLR 26/06 A3024 RMK AO2 SLP230 T02610056 10261 20094 58006
KGBD 021856Z AUTO 15013G17KT 10SM CLR 27/05 A3022 RMK AO2 SLP222 T02720050



Page loaded:  19:05 UTC  |   12:05 PM Pacific  |   01:05 PM Mountain  |   02:05 PM Central  |   03:05 PM Eastern

 

ADVISORIES

FORECASTS

FORECASTS

OBSERVATIONS

USER TOOLS

ABOUT US